createdAt,value
2019-01-20T00:00:50.185Z,1037.38
2019-01-20T00:01:50.171Z,1037.41
2019-01-20T00:02:50.149Z,1037.42
2019-01-20T00:03:50.128Z,1037.4
2019-01-20T00:04:50.109Z,1037.43
2019-01-20T00:05:50.091Z,1037.41
2019-01-20T00:06:50.072Z,1037.39
2019-01-20T00:07:50.053Z,1037.41
2019-01-20T00:08:50.035Z,1037.4
2019-01-20T00:09:50.014Z,1037.42
2019-01-20T00:10:49.995Z,1037.43
2019-01-20T00:11:49.977Z,1037.42
2019-01-20T00:12:49.957Z,1037.41
2019-01-20T00:13:49.939Z,1037.41
2019-01-20T00:14:49.919Z,1037.4
2019-01-20T00:15:49.901Z,1037.39
2019-01-20T00:16:49.879Z,1037.4
2019-01-20T00:17:49.862Z,1037.39
2019-01-20T00:18:49.843Z,1037.33
2019-01-20T00:19:49.830Z,1037.37
2019-01-20T00:20:49.805Z,1037.38
2019-01-20T00:21:51.352Z,1037.3
2019-01-20T00:22:49.768Z,1037.32
2019-01-20T00:23:49.747Z,1037.36
2019-01-20T00:24:49.733Z,1037.29
2019-01-20T00:25:49.709Z,1037.3
2019-01-20T00:26:49.942Z,1037.27
2019-01-20T00:27:49.672Z,1037.29
2019-01-20T00:28:49.653Z,1037.29
2019-01-20T00:29:49.633Z,1037.23
2019-01-20T00:30:49.615Z,1037.25
2019-01-20T00:31:49.596Z,1037.26
2019-01-20T00:32:49.576Z,1037.26
2019-01-20T00:33:49.557Z,1037.25
2019-01-20T00:34:49.538Z,1037.25
2019-01-20T00:35:49.525Z,1037.24
2019-01-20T00:36:49.500Z,1037.24
2019-01-20T00:37:49.481Z,1037.23
2019-01-20T00:38:49.465Z,1037.25
2019-01-20T00:39:49.443Z,1037.25
2019-01-20T00:40:49.424Z,1037.22
2019-01-20T00:41:49.405Z,1037.25
2019-01-20T00:42:49.385Z,1037.21
2019-01-20T00:43:49.367Z,1037.22
2019-01-20T00:44:49.354Z,1037.18
2019-01-20T00:45:49.333Z,1037.2
2019-01-20T00:46:49.309Z,1037.21
2019-01-20T00:47:49.291Z,1037.19
2019-01-20T00:48:49.271Z,1037.17
2019-01-20T00:49:49.251Z,1037.23
2019-01-20T00:50:49.233Z,1037.19
2019-01-20T00:51:49.214Z,1037.19
2019-01-20T00:52:49.193Z,1037.26
2019-01-20T00:53:49.175Z,1037.23
2019-01-20T00:54:49.159Z,1037.29
2019-01-20T00:55:49.139Z,1037.33
2019-01-20T00:56:49.117Z,1037.36
2019-01-20T00:57:49.098Z,1037.39
2019-01-20T00:58:49.080Z,1037.41
2019-01-20T00:59:49.061Z,1037.43
2019-01-20T01:00:49.041Z,1037.43
2019-01-20T01:01:49.022Z,1037.43
2019-01-20T01:02:49.002Z,1037.43
2019-01-20T01:03:48.985Z,1037.44
2019-01-20T01:04:48.963Z,1037.46
2019-01-20T01:05:48.945Z,1037.46
2019-01-20T01:06:48.926Z,1037.5
2019-01-20T01:07:48.906Z,1037.5
2019-01-20T01:08:48.887Z,1037.49
2019-01-20T01:09:48.870Z,1037.5
2019-01-20T01:10:48.850Z,1037.5
2019-01-20T01:11:48.830Z,1037.5
2019-01-20T01:12:48.811Z,1037.51
2019-01-20T01:13:48.792Z,1037.54
2019-01-20T01:14:48.770Z,1037.5
2019-01-20T01:15:48.752Z,1037.5
2019-01-20T01:16:48.735Z,1037.49
2019-01-20T01:17:48.715Z,1037.46
2019-01-20T01:18:48.695Z,1037.48
2019-01-20T01:19:48.676Z,1037.48
2019-01-20T01:20:48.656Z,1037.5
2019-01-20T01:21:48.638Z,1037.5
2019-01-20T01:22:48.620Z,1037.48
2019-01-20T01:23:48.599Z,1037.51
2019-01-20T01:24:48.579Z,1037.52
2019-01-20T01:25:48.560Z,1037.47
2019-01-20T01:26:48.541Z,1037.51
2019-01-20T01:27:48.522Z,1037.48
2019-01-20T01:28:48.505Z,1037.48
2019-01-20T01:29:48.483Z,1037.5
2019-01-20T01:30:48.464Z,1037.47
2019-01-20T01:31:48.444Z,1037.47
2019-01-20T01:32:48.425Z,1037.46
2019-01-20T01:33:48.406Z,1037.46
2019-01-20T01:34:48.386Z,1037.44
2019-01-20T01:35:48.368Z,1037.42
2019-01-20T01:36:48.347Z,1037.42
2019-01-20T01:37:48.328Z,1037.37
2019-01-20T01:38:48.308Z,1037.4
2019-01-20T01:39:48.290Z,1037.41
2019-01-20T01:40:48.269Z,1037.4
2019-01-20T01:41:48.253Z,1037.41
2019-01-20T01:42:48.232Z,1037.41
2019-01-20T01:43:48.214Z,1037.42
2019-01-20T01:44:48.193Z,1037.45
2019-01-20T01:45:48.174Z,1037.43
2019-01-20T01:46:48.155Z,1037.46
2019-01-20T01:47:48.135Z,1037.48
2019-01-20T01:48:48.116Z,1037.46
2019-01-20T01:49:48.097Z,1037.49
2019-01-20T01:50:48.077Z,1037.48
2019-01-20T01:51:48.061Z,1037.49
2019-01-20T01:52:48.037Z,1037.47
2019-01-20T01:53:48.020Z,1037.51
2019-01-20T01:54:48.001Z,1037.48
2019-01-20T01:55:47.985Z,1037.48
2019-01-20T01:56:47.963Z,1037.48
2019-01-20T01:57:47.944Z,1037.51
2019-01-20T01:58:47.925Z,1037.5
2019-01-20T01:59:47.904Z,1037.48
2019-01-20T02:00:47.886Z,1037.51
2019-01-20T02:01:47.867Z,1037.49
2019-01-20T02:02:47.845Z,1037.48
2019-01-20T02:03:47.827Z,1037.5
2019-01-20T02:04:47.854Z,1037.49
2019-01-20T02:05:47.790Z,1037.49
2019-01-20T02:06:47.770Z,1037.48
2019-01-20T02:07:47.750Z,1037.49
2019-01-20T02:08:47.731Z,1037.5
2019-01-20T02:09:47.711Z,1037.53
2019-01-20T02:10:47.692Z,1037.51
2019-01-20T02:11:47.673Z,1037.52
2019-01-20T02:12:47.654Z,1037.5
2019-01-20T02:13:47.634Z,1037.54
2019-01-20T02:14:47.615Z,1037.54
2019-01-20T02:15:47.595Z,1037.53
2019-01-20T02:16:47.575Z,1037.56
2019-01-20T02:17:47.556Z,1037.54
2019-01-20T02:18:47.537Z,1037.51
2019-01-20T02:19:47.518Z,1037.48
2019-01-20T02:20:47.498Z,1037.45
2019-01-20T02:21:47.479Z,1037.46
2019-01-20T02:22:47.462Z,1037.49
2019-01-20T02:23:47.440Z,1037.47
2019-01-20T02:24:47.421Z,1037.47
2019-01-20T02:25:47.400Z,1037.48
2019-01-20T02:26:47.382Z,1037.45
2019-01-20T02:27:47.362Z,1037.49
2019-01-20T02:28:47.343Z,1037.52
2019-01-20T02:29:47.323Z,1037.52
2019-01-20T02:30:47.304Z,1037.54
2019-01-20T02:31:47.284Z,1037.56
2019-01-20T02:32:47.264Z,1037.55
2019-01-20T02:33:47.246Z,1037.58
2019-01-20T02:34:47.227Z,1037.54
2019-01-20T02:35:47.208Z,1037.56
2019-01-20T02:36:47.187Z,1037.58
2019-01-20T02:37:47.167Z,1037.61
2019-01-20T02:38:47.148Z,1037.58
2019-01-20T02:39:47.131Z,1037.55
2019-01-20T02:40:47.114Z,1037.63
2019-01-20T02:41:54.849Z,1037.58
2019-01-20T02:42:47.070Z,1037.56
2019-01-20T02:43:47.051Z,1037.54
2019-01-20T02:44:47.035Z,1037.54
2019-01-20T02:45:47.013Z,1037.58
2019-01-20T02:46:46.993Z,1037.57
2019-01-20T02:47:46.975Z,1037.58
2019-01-20T02:48:46.956Z,1037.57
2019-01-20T02:49:46.936Z,1037.58
2019-01-20T02:50:46.915Z,1037.55
2019-01-20T02:51:46.896Z,1037.49
2019-01-20T02:52:46.877Z,1037.54
2019-01-20T02:53:46.860Z,1037.51
2019-01-20T02:54:46.837Z,1037.52
2019-01-20T02:55:46.817Z,1037.49
2019-01-20T02:56:46.797Z,1037.5
2019-01-20T02:57:46.777Z,1037.51
2019-01-20T02:58:46.763Z,1037.53
2019-01-20T02:59:46.741Z,1037.55
2019-01-20T03:00:46.720Z,1037.57
2019-01-20T03:01:46.701Z,1037.59
2019-01-20T03:02:46.682Z,1037.59
2019-01-20T03:03:46.663Z,1037.62
2019-01-20T03:04:46.644Z,1037.63
2019-01-20T03:05:46.622Z,1037.63
2019-01-20T03:06:46.604Z,1037.65
2019-01-20T03:07:46.583Z,1037.67
2019-01-20T03:08:46.564Z,1037.66
2019-01-20T03:09:46.545Z,1037.7
2019-01-20T03:10:46.525Z,1037.66
2019-01-20T03:11:46.505Z,1037.7
2019-01-20T03:12:46.486Z,1037.73
2019-01-20T03:13:46.468Z,1037.73
2019-01-20T03:14:46.447Z,1037.74
2019-01-20T03:15:46.427Z,1037.74
2019-01-20T03:16:46.409Z,1037.73
2019-01-20T03:17:46.390Z,1037.71
2019-01-20T03:18:46.369Z,1037.7
2019-01-20T03:19:46.349Z,1037.7
2019-01-20T03:20:46.331Z,1037.71
2019-01-20T03:21:46.310Z,1037.69
2019-01-20T03:22:46.290Z,1037.68
2019-01-20T03:23:46.272Z,1037.7
2019-01-20T03:24:46.251Z,1037.67
2019-01-20T03:25:46.232Z,1037.74
2019-01-20T03:26:46.214Z,1037.7
2019-01-20T03:27:46.192Z,1037.66
2019-01-20T03:28:46.174Z,1037.65
2019-01-20T03:29:46.154Z,1037.63
2019-01-20T03:30:46.136Z,1037.64
2019-01-20T03:31:46.118Z,1037.62
2019-01-20T03:32:46.099Z,1037.62
2019-01-20T03:33:46.075Z,1037.62
2019-01-20T03:34:46.056Z,1037.65
2019-01-20T03:35:46.037Z,1037.6
2019-01-20T03:36:46.018Z,1037.59
2019-01-20T03:37:45.997Z,1037.61
2019-01-20T03:38:45.977Z,1037.63
2019-01-20T03:39:45.959Z,1037.61
2019-01-20T03:40:45.939Z,1037.61
2019-01-20T03:41:45.919Z,1037.59
2019-01-20T03:42:45.898Z,1037.62
2019-01-20T03:43:45.880Z,1037.63
2019-01-20T03:44:45.860Z,1037.61
2019-01-20T03:45:45.840Z,1037.65
2019-01-20T03:46:45.821Z,1037.61
2019-01-20T03:47:45.804Z,1037.66
2019-01-20T03:48:45.781Z,1037.63
2019-01-20T03:49:45.762Z,1037.64
2019-01-20T03:50:45.742Z,1037.64
2019-01-20T03:51:45.723Z,1037.68
2019-01-20T03:52:45.701Z,1037.69
2019-01-20T03:53:45.683Z,1037.66
2019-01-20T03:54:45.664Z,1037.66
2019-01-20T03:55:45.643Z,1037.62
2019-01-20T03:56:45.624Z,1037.6
2019-01-20T03:57:45.610Z,1037.6
2019-01-20T03:58:45.594Z,1037.62
2019-01-20T03:59:45.565Z,1037.62
2019-01-20T04:00:45.545Z,1037.59
2019-01-20T04:01:45.526Z,1037.59
2019-01-20T04:02:45.505Z,1037.65
2019-01-20T04:03:45.492Z,1037.62
2019-01-20T04:04:45.467Z,1037.65
2019-01-20T04:05:45.448Z,1037.68
2019-01-20T04:06:45.428Z,1037.69
2019-01-20T04:07:45.407Z,1037.64
2019-01-20T04:08:45.388Z,1037.68
2019-01-20T04:09:45.368Z,1037.68
2019-01-20T04:10:45.347Z,1037.72
2019-01-20T04:11:45.329Z,1037.73
2019-01-20T04:12:45.309Z,1037.76
2019-01-20T04:13:45.288Z,1037.76
2019-01-20T04:14:45.270Z,1037.77
2019-01-20T04:15:45.250Z,1037.76
2019-01-20T04:16:45.232Z,1037.78
2019-01-20T04:17:45.211Z,1037.76
2019-01-20T04:18:45.190Z,1037.82
2019-01-20T04:19:45.171Z,1037.83
2019-01-20T04:20:45.152Z,1037.86
2019-01-20T04:21:45.137Z,1037.86
2019-01-20T04:22:45.111Z,1037.88
2019-01-20T04:23:45.096Z,1037.9
2019-01-20T04:24:45.071Z,1037.92
2019-01-20T04:25:45.052Z,1037.96
2019-01-20T04:26:45.034Z,1037.94
2019-01-20T04:27:45.014Z,1037.98
2019-01-20T04:28:44.993Z,1037.96
2019-01-20T04:29:44.974Z,1037.93
2019-01-20T04:30:44.955Z,1037.95
2019-01-20T04:31:44.934Z,1037.88
2019-01-20T04:32:44.915Z,1037.84
2019-01-20T04:33:44.894Z,1037.88
2019-01-20T04:34:44.875Z,1037.85
2019-01-20T04:35:44.854Z,1037.89
2019-01-20T04:36:44.834Z,1037.89
2019-01-20T04:37:44.815Z,1037.92
2019-01-20T04:38:44.796Z,1037.96
2019-01-20T04:39:44.775Z,1037.93
2019-01-20T04:40:44.755Z,1037.95
2019-01-20T04:41:44.736Z,1037.96
2019-01-20T04:42:44.716Z,1037.95
2019-01-20T04:43:44.696Z,1037.91
2019-01-20T04:44:44.676Z,1037.91
2019-01-20T04:45:44.658Z,1037.89
2019-01-20T04:46:44.637Z,1037.91
2019-01-20T04:47:44.617Z,1037.92
2019-01-20T04:48:44.602Z,1037.91
2019-01-20T04:49:44.578Z,1037.85
2019-01-20T04:50:44.558Z,1037.87
2019-01-20T04:51:44.537Z,1037.9
2019-01-20T04:52:44.519Z,1037.88
2019-01-20T04:53:44.499Z,1037.93
2019-01-20T04:54:44.481Z,1037.9
2019-01-20T04:55:44.458Z,1037.92
2019-01-20T04:56:44.440Z,1037.93
2019-01-20T04:57:44.418Z,1037.95
2019-01-20T04:58:44.399Z,1037.96
2019-01-20T04:59:44.379Z,1037.91
2019-01-20T05:00:44.361Z,1037.95
2019-01-20T05:01:44.339Z,1037.98
2019-01-20T05:02:44.319Z,1037.97
2019-01-20T05:03:44.300Z,1038.01
2019-01-20T05:04:44.281Z,1038.01
2019-01-20T05:05:44.264Z,1037.99
2019-01-20T05:06:44.241Z,1038.01
2019-01-20T05:07:44.223Z,1038.01
2019-01-20T05:08:44.201Z,1038.03
2019-01-20T05:09:44.183Z,1038.02
2019-01-20T05:10:44.162Z,1038.04
2019-01-20T05:11:44.142Z,1038.05
2019-01-20T05:12:44.122Z,1038.02
2019-01-20T05:13:44.101Z,1038.03
2019-01-20T05:14:44.083Z,1038.03
2019-01-20T05:15:44.062Z,1038.05
2019-01-20T05:16:44.043Z,1038.04
2019-01-20T05:17:44.023Z,1038
2019-01-20T05:18:44.008Z,1037.98
2019-01-20T05:19:43.982Z,1038.01
2019-01-20T05:20:43.962Z,1038.01
2019-01-20T05:21:43.943Z,1037.99
2019-01-20T05:22:43.941Z,1037.98
2019-01-20T05:23:43.904Z,1037.97
2019-01-20T05:24:43.883Z,1037.99
2019-01-20T05:25:43.864Z,1037.96
2019-01-20T05:26:43.843Z,1037.99
2019-01-20T05:27:43.827Z,1038
2019-01-20T05:28:43.804Z,1038
2019-01-20T05:29:43.784Z,1037.99
2019-01-20T05:30:43.763Z,1037.96
2019-01-20T05:31:43.744Z,1037.92
2019-01-20T05:32:43.723Z,1037.92
2019-01-20T05:33:43.744Z,1037.94
2019-01-20T05:34:43.686Z,1037.93
2019-01-20T05:35:43.665Z,1037.93
2019-01-20T05:36:43.646Z,1037.96
2019-01-20T05:37:43.625Z,1037.95
2019-01-20T05:38:43.606Z,1037.94
2019-01-20T05:39:43.590Z,1037.98
2019-01-20T05:40:43.566Z,1038
2019-01-20T05:41:43.545Z,1038.02
2019-01-20T05:42:46.191Z,1038.02
2019-01-20T05:43:43.506Z,1038.02
2019-01-20T05:44:43.484Z,1038.04
2019-01-20T05:45:43.474Z,1038.03
2019-01-20T05:46:43.446Z,1038.04
2019-01-20T05:47:43.426Z,1038.07
2019-01-20T05:48:43.405Z,1038.06
2019-01-20T05:49:43.386Z,1038.05
2019-01-20T05:50:43.366Z,1038.07
2019-01-20T05:51:43.346Z,1038.09
2019-01-20T05:52:43.326Z,1038.06
2019-01-20T05:53:43.306Z,1038.04
2019-01-20T05:54:43.286Z,1038.08
2019-01-20T05:55:43.267Z,1038.06
2019-01-20T05:56:43.246Z,1038.04
2019-01-20T05:57:43.226Z,1038.05
2019-01-20T05:58:43.207Z,1038.01
2019-01-20T05:59:43.184Z,1038.02
2019-01-20T06:00:43.166Z,1038.04
2019-01-20T06:01:43.148Z,1037.99
2019-01-20T06:02:43.125Z,1037.97
2019-01-20T06:03:43.108Z,1037.98
2019-01-20T06:04:43.086Z,1037.96
2019-01-20T06:05:43.067Z,1037.95
2019-01-20T06:06:43.047Z,1037.95
2019-01-20T06:07:43.026Z,1037.96
2019-01-20T06:08:43.007Z,1037.97
2019-01-20T06:09:42.987Z,1038
2019-01-20T06:10:42.966Z,1037.99
2019-01-20T06:11:42.946Z,1037.99
2019-01-20T06:12:42.927Z,1038.04
2019-01-20T06:13:42.907Z,1038.05
2019-01-20T06:14:42.886Z,1038.05
2019-01-20T06:15:42.869Z,1038.05
2019-01-20T06:16:42.849Z,1038.05
2019-01-20T06:17:42.829Z,1038.07
2019-01-20T06:18:42.809Z,1038.1
2019-01-20T06:19:42.787Z,1038.11
2019-01-20T06:20:42.767Z,1038.13
2019-01-20T06:21:42.747Z,1038.14
2019-01-20T06:22:42.732Z,1038.17
2019-01-20T06:23:42.707Z,1038.17
2019-01-20T06:24:42.688Z,1038.17
2019-01-20T06:25:42.666Z,1038.21
2019-01-20T06:26:42.647Z,1038.18
2019-01-20T06:27:42.627Z,1038.19
2019-01-20T06:28:42.608Z,1038.17
2019-01-20T06:29:42.585Z,1038.23
2019-01-20T06:30:42.568Z,1038.21
2019-01-20T06:31:42.547Z,1038.18
2019-01-20T06:32:42.527Z,1038.19
2019-01-20T06:33:42.507Z,1038.18
2019-01-20T06:34:42.487Z,1038.22
2019-01-20T06:35:42.467Z,1038.18
2019-01-20T06:36:42.446Z,1038.19
2019-01-20T06:37:42.427Z,1038.22
2019-01-20T06:38:42.407Z,1038.21
2019-01-20T06:39:42.387Z,1038.23
2019-01-20T06:40:42.368Z,1038.22
2019-01-20T06:41:42.351Z,1038.23
2019-01-20T06:42:42.328Z,1038.29
2019-01-20T06:43:42.307Z,1038.28
2019-01-20T06:44:42.288Z,1038.29
2019-01-20T06:45:42.269Z,1038.29
2019-01-20T06:46:42.248Z,1038.35
2019-01-20T06:47:42.227Z,1038.33
2019-01-20T06:48:42.206Z,1038.31
2019-01-20T06:49:42.187Z,1038.36
2019-01-20T06:50:42.166Z,1038.32
2019-01-20T06:51:42.147Z,1038.4
2019-01-20T06:52:42.126Z,1038.39
2019-01-20T06:53:42.107Z,1038.42
2019-01-20T06:54:42.087Z,1038.45
2019-01-20T06:55:42.067Z,1038.45
2019-01-20T06:56:42.049Z,1038.45
2019-01-20T06:57:42.029Z,1038.44
2019-01-20T06:58:42.006Z,1038.46
2019-01-20T06:59:41.987Z,1038.45
2019-01-20T07:00:41.966Z,1038.45
2019-01-20T07:01:41.947Z,1038.51
2019-01-20T07:02:41.927Z,1038.49
2019-01-20T07:03:41.907Z,1038.46
2019-01-20T07:04:41.887Z,1038.46
2019-01-20T07:05:41.866Z,1038.43
2019-01-20T07:06:41.847Z,1038.46
2019-01-20T07:07:41.827Z,1038.44
2019-01-20T07:08:41.807Z,1038.46
2019-01-20T07:09:41.787Z,1038.42
2019-01-20T07:10:41.767Z,1038.42
2019-01-20T07:11:41.747Z,1038.35
2019-01-20T07:12:41.727Z,1038.34
2019-01-20T07:13:41.706Z,1038.38
2019-01-20T07:14:41.687Z,1038.33
2019-01-20T07:15:41.667Z,1038.36
2019-01-20T07:16:41.646Z,1038.38
2019-01-20T07:17:41.627Z,1038.32
2019-01-20T07:18:41.608Z,1038.35
2019-01-20T07:19:41.588Z,1038.31
2019-01-20T07:20:41.567Z,1038.29
2019-01-20T07:21:41.548Z,1038.3
2019-01-20T07:22:41.526Z,1038.29
2019-01-20T07:23:41.506Z,1038.28
2019-01-20T07:24:41.495Z,1038.26
2019-01-20T07:25:41.467Z,1038.2
2019-01-20T07:26:41.447Z,1038.18
2019-01-20T07:27:41.426Z,1038.1
2019-01-20T07:28:41.407Z,1038.09
2019-01-20T07:29:41.394Z,1038.07
2019-01-20T07:30:41.368Z,1038.1
2019-01-20T07:31:41.347Z,1038.09
2019-01-20T07:32:41.328Z,1038.09
2019-01-20T07:33:41.308Z,1038.06
2019-01-20T07:34:41.288Z,1038.03
2019-01-20T07:35:41.267Z,1038.02
2019-01-20T07:36:41.248Z,1038.01
2019-01-20T07:37:41.288Z,1038.02
2019-01-20T07:38:41.208Z,1038.02
2019-01-20T07:39:41.188Z,1038
2019-01-20T07:40:41.168Z,1038.01
2019-01-20T07:41:41.150Z,1038.02
2019-01-20T07:42:41.129Z,1038.03
2019-01-20T07:43:41.110Z,1038.02
2019-01-20T07:44:41.629Z,1038.02
2019-01-20T07:45:41.069Z,1038.03
2019-01-20T07:46:41.051Z,1038.03
2019-01-20T07:47:41.031Z,1038.05
2019-01-20T07:48:41.014Z,1038.03
2019-01-20T07:49:40.991Z,1037.99
2019-01-20T07:50:40.970Z,1038.03
2019-01-20T07:51:40.952Z,1037.98
2019-01-20T07:52:40.933Z,1037.98
2019-01-20T07:53:40.914Z,1037.91
2019-01-20T07:54:40.893Z,1037.91
2019-01-20T07:55:40.874Z,1037.89
2019-01-20T07:56:40.852Z,1037.86
2019-01-20T07:57:40.834Z,1037.88
2019-01-20T07:58:40.814Z,1037.82
2019-01-20T07:59:40.795Z,1037.84
2019-01-20T08:00:40.775Z,1037.81
2019-01-20T08:01:40.755Z,1037.83
2019-01-20T08:02:40.735Z,1037.8
2019-01-20T08:03:40.720Z,1037.88
2019-01-20T08:04:40.698Z,1037.87
2019-01-20T08:05:40.678Z,1037.91
2019-01-20T08:06:40.659Z,1037.91
2019-01-20T08:07:40.639Z,1037.9
2019-01-20T08:08:40.619Z,1037.92
2019-01-20T08:09:40.600Z,1037.98
2019-01-20T08:10:40.583Z,1037.98
2019-01-20T08:11:40.776Z,1037.97
2019-01-20T08:12:40.550Z,1037.99
2019-01-20T08:13:40.522Z,1038
2019-01-20T08:14:40.502Z,1038.01
2019-01-20T08:15:40.484Z,1037.94
2019-01-20T08:16:40.464Z,1038
2019-01-20T08:17:40.449Z,1037.97
2019-01-20T08:18:40.427Z,1037.97
2019-01-20T08:19:40.406Z,1037.95
2019-01-20T08:20:40.387Z,1038.01
2019-01-20T08:21:40.368Z,1038
2019-01-20T08:22:40.348Z,1038.01
2019-01-20T08:23:40.329Z,1038.01
2019-01-20T08:24:40.310Z,1038.05
2019-01-20T08:25:40.289Z,1038.04
2019-01-20T08:26:40.271Z,1038.11
2019-01-20T08:27:40.252Z,1038.12
2019-01-20T08:28:40.233Z,1038.11
2019-01-20T08:29:40.212Z,1038.14
2019-01-20T08:30:40.193Z,1038.15
2019-01-20T08:31:40.174Z,1038.14
2019-01-20T08:32:40.155Z,1038.15
2019-01-20T08:33:40.135Z,1038.12
2019-01-20T08:34:40.116Z,1038.13
2019-01-20T08:35:40.096Z,1038.15
2019-01-20T08:36:40.078Z,1038.15
2019-01-20T08:37:40.060Z,1038.12
2019-01-20T08:38:40.038Z,1038.15
2019-01-20T08:39:40.019Z,1038.14
2019-01-20T08:40:40.000Z,1038.16
2019-01-20T08:41:39.979Z,1038.14
2019-01-20T08:42:40.203Z,1038.14
2019-01-20T08:43:39.942Z,1038.13
2019-01-20T08:44:39.923Z,1038.1
2019-01-20T08:45:39.904Z,1038.08
2019-01-20T08:46:39.883Z,1038.09
2019-01-20T08:47:39.864Z,1038.11
2019-01-20T08:48:39.845Z,1038.05
2019-01-20T08:49:39.827Z,1038.02
2019-01-20T08:50:39.806Z,1038.01
2019-01-20T08:51:39.789Z,1038
2019-01-20T08:52:39.767Z,1037.95
2019-01-20T08:53:39.750Z,1037.95
2019-01-20T08:54:39.730Z,1037.92
2019-01-20T08:55:39.710Z,1037.9
2019-01-20T08:56:39.691Z,1037.86
2019-01-20T08:57:39.672Z,1037.84
2019-01-20T08:58:39.652Z,1037.81
2019-01-20T08:59:39.634Z,1037.83
2019-01-20T09:00:40.632Z,1037.77
2019-01-20T09:01:39.596Z,1037.84
2019-01-20T09:02:39.624Z,1037.78
2019-01-20T09:03:39.556Z,1037.76
2019-01-20T09:04:39.537Z,1037.76
2019-01-20T09:05:39.521Z,1037.74
2019-01-20T09:06:39.500Z,1037.72
2019-01-20T09:07:39.482Z,1037.71
2019-01-20T09:08:39.463Z,1037.67
2019-01-20T09:09:39.443Z,1037.7
2019-01-20T09:10:39.423Z,1037.67
2019-01-20T09:11:39.405Z,1037.67
2019-01-20T09:12:39.386Z,1037.64
2019-01-20T09:13:40.098Z,1037.67
2019-01-20T09:14:39.349Z,1037.68
2019-01-20T09:15:39.331Z,1037.73
2019-01-20T09:16:39.314Z,1037.69
2019-01-20T09:17:39.294Z,1037.7
2019-01-20T09:18:39.273Z,1037.68
2019-01-20T09:19:39.256Z,1037.6
2019-01-20T09:20:39.236Z,1037.59
2019-01-20T09:21:39.216Z,1037.59
2019-01-20T09:22:39.199Z,1037.53
2019-01-20T09:23:39.182Z,1037.47
2019-01-20T09:24:39.163Z,1037.45
2019-01-20T09:25:39.145Z,1037.46
2019-01-20T09:26:39.130Z,1037.44
2019-01-20T09:27:39.107Z,1037.42
2019-01-20T09:28:39.087Z,1037.43
2019-01-20T09:29:39.069Z,1037.4
2019-01-20T09:30:39.051Z,1037.41
2019-01-20T09:31:39.032Z,1037.39
2019-01-20T09:32:39.012Z,1037.43
2019-01-20T09:33:38.994Z,1037.38
2019-01-20T09:34:38.978Z,1037.39
2019-01-20T09:35:38.958Z,1037.39
2019-01-20T09:36:38.940Z,1037.37
2019-01-20T09:37:38.940Z,1037.35
2019-01-20T09:38:38.902Z,1037.31
2019-01-20T09:39:38.885Z,1037.28
2019-01-20T09:40:38.866Z,1037.24
2019-01-20T09:41:38.848Z,1037.19
2019-01-20T09:42:38.829Z,1037.18
2019-01-20T09:43:38.811Z,1037.17
2019-01-20T09:44:38.794Z,1037.15
2019-01-20T09:45:38.775Z,1037.12
2019-01-20T09:46:38.757Z,1037.11
2019-01-20T09:47:38.739Z,1037.1
2019-01-20T09:48:38.721Z,1037.05
2019-01-20T09:49:38.702Z,1037.08
2019-01-20T09:50:38.684Z,1037.06
2019-01-20T09:51:38.667Z,1037.04
2019-01-20T09:52:38.649Z,1037.01
2019-01-20T09:53:38.631Z,1037.03
2019-01-20T09:54:38.612Z,1036.99
2019-01-20T09:55:38.594Z,1036.96
2019-01-20T09:56:38.575Z,1037
2019-01-20T09:57:38.557Z,1037
2019-01-20T09:58:38.540Z,1037.03
2019-01-20T09:59:38.523Z,1036.97
2019-01-20T10:00:38.507Z,1037.01
2019-01-20T10:01:38.487Z,1037.03
2019-01-20T10:02:38.470Z,1037.03
2019-01-20T10:03:38.451Z,1037.05
2019-01-20T10:04:38.434Z,1037.01
2019-01-20T10:05:38.415Z,1037
2019-01-20T10:06:38.398Z,1036.97
2019-01-20T10:07:38.379Z,1037
2019-01-20T10:08:38.362Z,1036.99
2019-01-20T10:09:38.345Z,1036.94
2019-01-20T10:10:38.327Z,1036.91
2019-01-20T10:11:38.308Z,1036.87
2019-01-20T10:12:38.296Z,1036.87
2019-01-20T10:13:38.273Z,1036.85
2019-01-20T10:14:38.255Z,1036.83
2019-01-20T10:15:38.238Z,1036.85
2019-01-20T10:16:38.221Z,1036.81
2019-01-20T10:17:38.202Z,1036.84
2019-01-20T10:18:38.186Z,1036.8
2019-01-20T10:19:38.166Z,1036.79
2019-01-20T10:20:38.148Z,1036.75
2019-01-20T10:21:38.131Z,1036.73
2019-01-20T10:22:38.114Z,1036.69
2019-01-20T10:23:38.096Z,1036.66
2019-01-20T10:24:38.078Z,1036.7
2019-01-20T10:25:38.064Z,1036.61
2019-01-20T10:26:40.086Z,1036.6
2019-01-20T10:27:38.025Z,1036.6
2019-01-20T10:28:38.008Z,1036.59
2019-01-20T10:29:37.992Z,1036.56
2019-01-20T10:30:37.972Z,1036.56
2019-01-20T10:31:37.956Z,1036.55
2019-01-20T10:32:37.938Z,1036.54
2019-01-20T10:33:37.921Z,1036.48
2019-01-20T10:34:37.904Z,1036.48
2019-01-20T10:35:37.887Z,1036.44
2019-01-20T10:36:37.870Z,1036.4
2019-01-20T10:37:37.856Z,1036.4
2019-01-20T10:38:37.835Z,1036.41
2019-01-20T10:39:37.817Z,1036.37
2019-01-20T10:40:37.799Z,1036.35
2019-01-20T10:41:37.781Z,1036.33
2019-01-20T10:42:37.765Z,1036.3
2019-01-20T10:43:37.748Z,1036.3
2019-01-20T10:44:37.730Z,1036.32
2019-01-20T10:45:37.712Z,1036.3
2019-01-20T10:46:37.697Z,1036.31
2019-01-20T10:47:37.679Z,1036.3
2019-01-20T10:48:37.661Z,1036.32
2019-01-20T10:49:37.645Z,1036.35
2019-01-20T10:50:37.627Z,1036.34
2019-01-20T10:51:37.611Z,1036.3
2019-01-20T10:52:37.593Z,1036.31
2019-01-20T10:53:37.576Z,1036.32
2019-01-20T10:54:37.560Z,1036.3
2019-01-20T10:55:37.542Z,1036.32
2019-01-20T10:56:37.525Z,1036.3
2019-01-20T10:57:37.508Z,1036.31
2019-01-20T10:58:37.491Z,1036.32
2019-01-20T10:59:37.472Z,1036.31
2019-01-20T11:00:37.456Z,1036.3
2019-01-20T11:01:37.440Z,1036.3
2019-01-20T11:02:37.423Z,1036.3
2019-01-20T11:03:37.406Z,1036.26
2019-01-20T11:04:37.389Z,1036.25
2019-01-20T11:05:37.373Z,1036.27
2019-01-20T11:06:37.354Z,1036.26
2019-01-20T11:07:37.337Z,1036.22
2019-01-20T11:08:37.322Z,1036.22
2019-01-20T11:09:37.305Z,1036.21
2019-01-20T11:10:37.287Z,1036.21
2019-01-20T11:11:37.269Z,1036.21
2019-01-20T11:12:37.252Z,1036.25
2019-01-20T11:13:37.237Z,1036.25
2019-01-20T11:14:37.228Z,1036.18
2019-01-20T11:15:37.209Z,1036.15
2019-01-20T11:16:37.186Z,1036.15
2019-01-20T11:17:37.169Z,1036.15
2019-01-20T11:18:37.153Z,1036.12
2019-01-20T11:19:37.136Z,1036.15
2019-01-20T11:20:37.119Z,1036.18
2019-01-20T11:21:37.102Z,1036.17
2019-01-20T11:22:37.084Z,1036.12
2019-01-20T11:23:37.069Z,1036.12
2019-01-20T11:24:37.051Z,1036.11
2019-01-20T11:25:37.035Z,1036.06
2019-01-20T11:26:37.020Z,1036.01
2019-01-20T11:27:37.003Z,1036.04
2019-01-20T11:28:36.996Z,1036
2019-01-20T11:29:36.969Z,1036.07
2019-01-20T11:30:36.957Z,1036.03
2019-01-20T11:31:36.935Z,1036.01
2019-01-20T11:32:42.274Z,1035.99
2019-01-20T11:33:36.903Z,1035.97
2019-01-20T11:34:36.886Z,1035.97
2019-01-20T11:35:36.869Z,1035.94
2019-01-20T11:36:36.852Z,1035.92
2019-01-20T11:37:36.836Z,1035.89
2019-01-20T11:38:36.820Z,1035.88
2019-01-20T11:39:36.803Z,1035.88
2019-01-20T11:40:36.790Z,1035.83
2019-01-20T11:41:36.771Z,1035.85
2019-01-20T11:42:36.753Z,1035.8
2019-01-20T11:43:36.736Z,1035.88
2019-01-20T11:44:36.720Z,1035.9
2019-01-20T11:45:36.703Z,1035.86
2019-01-20T11:46:36.687Z,1035.87
2019-01-20T11:47:41.864Z,1035.85
2019-01-20T11:48:36.654Z,1035.92
2019-01-20T11:49:36.639Z,1035.9
2019-01-20T11:50:36.624Z,1035.88
2019-01-20T11:51:36.606Z,1035.84
2019-01-20T11:52:36.589Z,1035.85
2019-01-20T11:53:36.573Z,1035.82
2019-01-20T11:54:36.555Z,1035.81
2019-01-20T11:55:36.539Z,1035.82
2019-01-20T11:56:36.524Z,1035.8
2019-01-20T11:57:36.505Z,1035.74
2019-01-20T11:58:36.491Z,1035.7
2019-01-20T11:59:36.474Z,1035.67
2019-01-20T12:00:36.460Z,1035.69
2019-01-20T12:01:36.442Z,1035.67
2019-01-20T12:02:36.425Z,1035.63
2019-01-20T12:03:36.409Z,1035.6
2019-01-20T12:04:36.403Z,1035.62
2019-01-20T12:05:36.377Z,1035.58
2019-01-20T12:06:36.359Z,1035.54
2019-01-20T12:07:36.343Z,1035.57
2019-01-20T12:08:36.326Z,1035.59
2019-01-20T12:09:36.311Z,1035.57